Uni-arise — 3FSV7 — position and weather

sailwx.info

Track history (hours):
 
Tides and Currents Weather Stations Pressure Air Temp Water Temp Dewpoint Dewpoint Depression Visibility Wind Speed Wind Dir Waves Ship Positions

Uni-arise

Last reported at 2018-Apr-24 15:21 UTC. Time now 2018-Apr-26 23:00 UTC.
Position N 22°11' E 120°17'.

Length 165 m; draft 8.5 m.

Type: Ship (hazmat cat D). MMSI: 351608000.

Date/timePositionNaut miles runAvg speedWind from/ knotsBaromVisibWave heightAir tempDewpointWater temp
2018-Apr-24 15:21N 22°11' E 120°17'514.1
2018-Apr-24 15:00N 22°15' E 120°15'612.6
2018-Apr-24 14:30N 22°21' E 120°13'613.0
2018-Apr-24 14:00N 22°28' E 120°13'510.7
2018-Apr-24 13:31N 22°33' E 120°15'4 8.4
2018-Apr-24 13:01N 22°33' E 120°20'0 0.4
2018-Apr-24 12:29N 22°33' E 120°20'0 0.0
2018-Apr-24 11:59N 22°33' E 120°20'0 0.0
2018-Apr-24 11:29N 22°33' E 120°20'0 0.0
2018-Apr-24 10:59N 22°33' E 120°20'0 0.0
2018-Apr-24 10:29N 22°33' E 120°20'0 0.0
2018-Apr-24 09:59N 22°33' E 120°20'0 0.0
2018-Apr-24 09:29N 22°33' E 120°20'0 0.0
2018-Apr-24 08:59N 22°33' E 120°20'0 0.0
2018-Apr-24 08:26N 22°33' E 120°20'0 0.0
2018-Apr-24 07:56N 22°33' E 120°20'0 0.0
2018-Apr-24 07:29N 22°33' E 120°20'0 0.0
2018-Apr-24 06:56N 22°33' E 120°20'0 0.0
2018-Apr-24 06:26N 22°33' E 120°20'0 0.0
2018-Apr-24 05:56N 22°33' E 120°20'0 0.0
2018-Apr-24 05:29N 22°33' E 120°20'0 0.0
2018-Apr-24 04:56N 22°33' E 120°20'0 0.0
2018-Apr-24 04:23N 22°33' E 120°20'0 0.0
2018-Apr-24 03:59N 22°33' E 120°20'0 0.0
2018-Apr-24 03:26N 22°33' E 120°20'0 0.0
2018-Apr-24 02:59N 22°33' E 120°20'0 0.0
2018-Apr-24 02:26N 22°33' E 120°20'0 0.0
2018-Apr-24 01:56N 22°33' E 120°20'0 0.0
2018-Apr-24 01:29N 22°33' E 120°20'0 0.0
2018-Apr-24 00:56N 22°33' E 120°20'0 0.0
2018-Apr-24 00:29N 22°33' E 120°20'0 0.0
2018-Apr-23 23:56N 22°33' E 120°20'0 0.0
2018-Apr-23 23:26N 22°33' E 120°20'0 0.0
2018-Apr-23 22:59N 22°33' E 120°20'0 0.0
2018-Apr-23 22:29N 22°33' E 120°20'0 0.0
2018-Apr-23 21:59N 22°33' E 120°20'0 0.0
2018-Apr-23 21:29N 22°33' E 120°20'0 0.0
2018-Apr-23 20:59N 22°33' E 120°20'0 0.0
2018-Apr-23 20:29N 22°33' E 120°20'0 0.1
2018-Apr-23 19:56N 22°33' E 120°20'0 0.0
2018-Apr-23 19:29N 22°33' E 120°20'0 0.1
2018-Apr-23 18:59N 22°33' E 120°20'0 0.0
2018-Apr-23 18:29N 22°33' E 120°20'0 0.0
2018-Apr-23 17:59N 22°33' E 120°20'0 0.0
2018-Apr-23 17:29N 22°33' E 120°20'0 0.0
2018-Apr-23 16:59N 22°33' E 120°20'0 0.0
2018-Apr-23 16:29N 22°33' E 120°20'0 0.0
2018-Apr-23 15:59N 22°33' E 120°20'0 0.0
2018-Apr-23 15:29N 22°33' E 120°20'0 0.0
2018-Apr-23 14:59N 22°33' E 120°20'0 0.0
2018-Apr-23 14:29N 22°33' E 120°20'0 0.0
2018-Apr-23 14:00N 22°33' E 120°20'1 1.2
2018-Apr-23 13:30N 22°33' E 120°19'3 5.6
2018-Apr-23 12:59N 22°33' E 120°16'1 2.1
2018-Apr-23 12:28N 22°32' E 120°15'0 0.0
2018-Apr-23 11:58N 22°32' E 120°15'0 0.0
2018-Apr-23 11:28N 22°32' E 120°15'0 0.0
2018-Apr-23 10:58N 22°32' E 120°15'0 0.0
2018-Apr-23 10:28N 22°32' E 120°15'0 0.0
2018-Apr-23 09:55N 22°32' E 120°15'0 0.0
2018-Apr-23 09:28N 22°32' E 120°15'0 0.0
2018-Apr-23 08:55N 22°32' E 120°15'0 0.0
2018-Apr-23 08:25N 22°32' E 120°15'0 0.1
2018-Apr-23 07:55N 22°32' E 120°15'0 0.1
2018-Apr-23 07:28N 22°32' E 120°15'0 0.0
2018-Apr-23 06:55N 22°32' E 120°15'0 0.1
2018-Apr-23 06:28N 22°32' E 120°15'0 0.1
2018-Apr-23 05:58N 22°32' E 120°15'0 0.1
2018-Apr-23 05:28N 22°32' E 120°15'0 0.0
2018-Apr-23 04:58N 22°32' E 120°15'0 0.0
2018-Apr-23 04:25N 22°32' E 120°15'0 0.0
2018-Apr-23 03:58N 22°32' E 120°15'0 0.0
2018-Apr-23 03:28N 22°32' E 120°15'0 0.1
2018-Apr-23 02:58N 22°32' E 120°15'0 0.1
2018-Apr-23 02:28N 22°32' E 120°15'0 0.0
2018-Apr-23 01:58N 22°32' E 120°15'0 0.0
2018-Apr-23 01:30N 22°32' E 120°15'0 0.3
2018-Apr-23 01:00N 22°32' E 120°16'1 2.5
2018-Apr-23 00:30N 22°31' E 120°15'612.0
2018-Apr-22 23:59N 22°24' E 120°14'612.3
2018-Apr-22 23:30N 22°19' E 120°16'612.0
2018-Apr-22 22:59N 22°13' E 120°18'  
2018-Apr-17 01:38N 22°05' E 120°20'215.2
2018-Apr-17 01:28N 22°07' E 120°19'714.6
2018-Apr-17 01:00N 22°14' E 120°17'713.2
2018-Apr-17 00:30N 22°20' E 120°15'612.4
2018-Apr-17 00:00N 22°26' E 120°13'612.1
2018-Apr-16 23:30N 22°32' E 120°14'510.2
2018-Apr-16 23:00N 22°33' E 120°19'1 1.1
2018-Apr-16 22:29N 22°33' E 120°20'0 0.0
2018-Apr-16 21:59N 22°33' E 120°20'0 0.0
2018-Apr-16 21:29N 22°33' E 120°20'0 0.0
2018-Apr-16 21:00N 22°33' E 120°20'0 0.0
2018-Apr-16 20:31N 22°33' E 120°20'0 0.0
2018-Apr-16 20:00N 22°33' E 120°20'0 0.0
2018-Apr-16 19:30N 22°33' E 120°20'0 0.0
2018-Apr-16 19:00N 22°33' E 120°20'0 0.0
2018-Apr-16 18:30N 22°33' E 120°20'0 0.0
2018-Apr-16 18:01N 22°33' E 120°20'0 0.0
2018-Apr-16 17:30N 22°33' E 120°20'0 0.0
2018-Apr-16 17:00N 22°33' E 120°20'0 0.0
2018-Apr-16 16:30N 22°33' E 120°20'0 0.0
2018-Apr-16 16:01N 22°33' E 120°20'0 0.0
2018-Apr-16 15:30N 22°33' E 120°20'0 0.0
2018-Apr-16 15:00N 22°33' E 120°20'0 0.0
2018-Apr-16 14:30N 22°33' E 120°20'0 0.0
2018-Apr-16 14:00N 22°33' E 120°20'0 0.0
2018-Apr-16 13:30N 22°33' E 120°20'0 0.0
2018-Apr-16 13:01N 22°33' E 120°20'0 0.0
2018-Apr-16 12:30N 22°33' E 120°20'0 0.0
2018-Apr-16 12:00N 22°33' E 120°20'0 0.0
2018-Apr-16 11:30N 22°33' E 120°20'0 0.0
2018-Apr-16 11:00N 22°33' E 120°20'0 0.0
2018-Apr-16 10:30N 22°33' E 120°20'0 0.0
2018-Apr-16 10:00N 22°33' E 120°20'0 0.0
2018-Apr-16 09:30N 22°33' E 120°20'0 0.0
2018-Apr-16 09:01N 22°33' E 120°20'0 0.0
2018-Apr-16 08:31N 22°33' E 120°20'0 0.0
2018-Apr-16 08:00N 22°33' E 120°20'0 0.0
2018-Apr-16 07:30N 22°33' E 120°20'0 0.0
2018-Apr-16 07:00N 22°33' E 120°20'0 0.0
2018-Apr-16 06:30N 22°33' E 120°20'0 0.0
2018-Apr-16 06:00N 22°33' E 120°20'0 0.0
2018-Apr-16 05:30N 22°33' E 120°20'0 0.0
2018-Apr-16 05:01N 22°33' E 120°20'0 0.0
2018-Apr-16 04:31N 22°33' E 120°20'0 0.0
2018-Apr-16 04:01N 22°33' E 120°20'0 0.0
2018-Apr-16 03:30N 22°33' E 120°20'1 2.9
2018-Apr-16 03:00N 22°33' E 120°18'4 7.0
2018-Apr-16 02:30N 22°32' E 120°15'2 3.8
2018-Apr-16 02:00N 22°30' E 120°14'0 0.3
2018-Apr-16 01:31N 22°30' E 120°14'1 2.4
2018-Apr-16 01:00N 22°29' E 120°14'611.8
2018-Apr-16 00:30N 22°23' E 120°15'611.9
2018-Apr-15 23:58N 22°17' E 120°16'  
Track history (hours):
 
Tides and Currents Weather Stations Pressure Air Temp Water Temp Dewpoint Dewpoint Depression Visibility Wind Speed Wind Dir Waves Ship Positions

Uni-arise

Last reported at 2018-Apr-24 15:21 UTC. Time now 2018-Apr-26 23:00 UTC.
Position N 22°11' E 120°17'.

Length 165 m; draft 8.5 m.

Type: Ship (hazmat cat D). MMSI: 351608000.

Date/timePositionNaut miles runAvg speedWind from/ knotsBaromVisibWave heightAir tempDewpointWater temp
2018-Apr-24 15:21N 22°11' E 120°17'514.1
2018-Apr-24 15:00N 22°15' E 120°15'612.6
2018-Apr-24 14:30N 22°21' E 120°13'613.0
2018-Apr-24 14:00N 22°28' E 120°13'510.7
2018-Apr-24 13:31N 22°33' E 120°15'4 8.4
2018-Apr-24 13:01N 22°33' E 120°20'0 0.4
2018-Apr-24 12:29N 22°33' E 120°20'0 0.0
2018-Apr-24 11:59N 22°33' E 120°20'0 0.0
2018-Apr-24 11:29N 22°33' E 120°20'0 0.0
2018-Apr-24 10:59N 22°33' E 120°20'0 0.0
2018-Apr-24 10:29N 22°33' E 120°20'0 0.0
2018-Apr-24 09:59N 22°33' E 120°20'0 0.0
2018-Apr-24 09:29N 22°33' E 120°20'0 0.0
2018-Apr-24 08:59N 22°33' E 120°20'0 0.0
2018-Apr-24 08:26N 22°33' E 120°20'0 0.0
2018-Apr-24 07:56N 22°33' E 120°20'0 0.0
2018-Apr-24 07:29N 22°33' E 120°20'0 0.0
2018-Apr-24 06:56N 22°33' E 120°20'0 0.0
2018-Apr-24 06:26N 22°33' E 120°20'0 0.0
2018-Apr-24 05:56N 22°33' E 120°20'0 0.0
2018-Apr-24 05:29N 22°33' E 120°20'0 0.0
2018-Apr-24 04:56N 22°33' E 120°20'0 0.0
2018-Apr-24 04:23N 22°33' E 120°20'0 0.0
2018-Apr-24 03:59N 22°33' E 120°20'0 0.0
2018-Apr-24 03:26N 22°33' E 120°20'0 0.0
2018-Apr-24 02:59N 22°33' E 120°20'0 0.0
2018-Apr-24 02:26N 22°33' E 120°20'0 0.0
2018-Apr-24 01:56N 22°33' E 120°20'0 0.0
2018-Apr-24 01:29N 22°33' E 120°20'0 0.0
2018-Apr-24 00:56N 22°33' E 120°20'0 0.0
2018-Apr-24 00:29N 22°33' E 120°20'0 0.0
2018-Apr-23 23:56N 22°33' E 120°20'0 0.0
2018-Apr-23 23:26N 22°33' E 120°20'0 0.0
2018-Apr-23 22:59N 22°33' E 120°20'0 0.0
2018-Apr-23 22:29N 22°33' E 120°20'0 0.0
2018-Apr-23 21:59N 22°33' E 120°20'0 0.0
2018-Apr-23 21:29N 22°33' E 120°20'0 0.0
2018-Apr-23 20:59N 22°33' E 120°20'0 0.0
2018-Apr-23 20:29N 22°33' E 120°20'0 0.1
2018-Apr-23 19:56N 22°33' E 120°20'0 0.0
2018-Apr-23 19:29N 22°33' E 120°20'0 0.1
2018-Apr-23 18:59N 22°33' E 120°20'0 0.0
2018-Apr-23 18:29N 22°33' E 120°20'0 0.0
2018-Apr-23 17:59N 22°33' E 120°20'0 0.0
2018-Apr-23 17:29N 22°33' E 120°20'0 0.0
2018-Apr-23 16:59N 22°33' E 120°20'0 0.0
2018-Apr-23 16:29N 22°33' E 120°20'0 0.0
2018-Apr-23 15:59N 22°33' E 120°20'0 0.0
2018-Apr-23 15:29N 22°33' E 120°20'0 0.0
2018-Apr-23 14:59N 22°33' E 120°20'0 0.0
2018-Apr-23 14:29N 22°33' E 120°20'0 0.0
2018-Apr-23 14:00N 22°33' E 120°20'1 1.2
2018-Apr-23 13:30N 22°33' E 120°19'3 5.6
2018-Apr-23 12:59N 22°33' E 120°16'1 2.1
2018-Apr-23 12:28N 22°32' E 120°15'0 0.0
2018-Apr-23 11:58N 22°32' E 120°15'0 0.0
2018-Apr-23 11:28N 22°32' E 120°15'0 0.0
2018-Apr-23 10:58N 22°32' E 120°15'0 0.0
2018-Apr-23 10:28N 22°32' E 120°15'0 0.0
2018-Apr-23 09:55N 22°32' E 120°15'0 0.0
2018-Apr-23 09:28N 22°32' E 120°15'0 0.0
2018-Apr-23 08:55N 22°32' E 120°15'0 0.0
2018-Apr-23 08:25N 22°32' E 120°15'0 0.1
2018-Apr-23 07:55N 22°32' E 120°15'0 0.1
2018-Apr-23 07:28N 22°32' E 120°15'0 0.0
2018-Apr-23 06:55N 22°32' E 120°15'0 0.1
2018-Apr-23 06:28N 22°32' E 120°15'0 0.1
2018-Apr-23 05:58N 22°32' E 120°15'0 0.1
2018-Apr-23 05:28N 22°32' E 120°15'0 0.0
2018-Apr-23 04:58N 22°32' E 120°15'0 0.0
2018-Apr-23 04:25N 22°32' E 120°15'0 0.0
2018-Apr-23 03:58N 22°32' E 120°15'0 0.0
2018-Apr-23 03:28N 22°32' E 120°15'0 0.1
2018-Apr-23 02:58N 22°32' E 120°15'0 0.1
2018-Apr-23 02:28N 22°32' E 120°15'0 0.0
2018-Apr-23 01:58N 22°32' E 120°15'0 0.0
2018-Apr-23 01:30N 22°32' E 120°15'0 0.3
2018-Apr-23 01:00N 22°32' E 120°16'1 2.5
2018-Apr-23 00:30N 22°31' E 120°15'612.0
2018-Apr-22 23:59N 22°24' E 120°14'612.3
2018-Apr-22 23:30N 22°19' E 120°16'612.0
2018-Apr-22 22:59N 22°13' E 120°18'  
2018-Apr-17 01:38N 22°05' E 120°20'215.2
2018-Apr-17 01:28N 22°07' E 120°19'714.6
2018-Apr-17 01:00N 22°14' E 120°17'713.2
2018-Apr-17 00:30N 22°20' E 120°15'612.4
2018-Apr-17 00:00N 22°26' E 120°13'612.1
2018-Apr-16 23:30N 22°32' E 120°14'510.2
2018-Apr-16 23:00N 22°33' E 120°19'1 1.1
2018-Apr-16 22:29N 22°33' E 120°20'0 0.0
2018-Apr-16 21:59N 22°33' E 120°20'0 0.0
2018-Apr-16 21:29N 22°33' E 120°20'0 0.0
2018-Apr-16 21:00N 22°33' E 120°20'0 0.0
2018-Apr-16 20:31N 22°33' E 120°20'0 0.0
2018-Apr-16 20:00N 22°33' E 120°20'0 0.0
2018-Apr-16 19:30N 22°33' E 120°20'0 0.0
2018-Apr-16 19:00N 22°33' E 120°20'0 0.0
2018-Apr-16 18:30N 22°33' E 120°20'0 0.0
2018-Apr-16 18:01N 22°33' E 120°20'0 0.0
2018-Apr-16 17:30N 22°33' E 120°20'0 0.0
2018-Apr-16 17:00N 22°33' E 120°20'0 0.0
2018-Apr-16 16:30N 22°33' E 120°20'0 0.0
2018-Apr-16 16:01N 22°33' E 120°20'0 0.0
2018-Apr-16 15:30N 22°33' E 120°20'0 0.0
2018-Apr-16 15:00N 22°33' E 120°20'0 0.0
2018-Apr-16 14:30N 22°33' E 120°20'0 0.0
2018-Apr-16 14:00N 22°33' E 120°20'0 0.0
2018-Apr-16 13:30N 22°33' E 120°20'0 0.0
2018-Apr-16 13:01N 22°33' E 120°20'0 0.0
2018-Apr-16 12:30N 22°33' E 120°20'0 0.0
2018-Apr-16 12:00N 22°33' E 120°20'0 0.0
2018-Apr-16 11:30N 22°33' E 120°20'0 0.0
2018-Apr-16 11:00N 22°33' E 120°20'0 0.0
2018-Apr-16 10:30N 22°33' E 120°20'0 0.0
2018-Apr-16 10:00N 22°33' E 120°20'0 0.0
2018-Apr-16 09:30N 22°33' E 120°20'0 0.0
2018-Apr-16 09:01N 22°33' E 120°20'0 0.0
2018-Apr-16 08:31N 22°33' E 120°20'0 0.0
2018-Apr-16 08:00N 22°33' E 120°20'0 0.0
2018-Apr-16 07:30N 22°33' E 120°20'0 0.0
2018-Apr-16 07:00N 22°33' E 120°20'0 0.0
2018-Apr-16 06:30N 22°33' E 120°20'0 0.0
2018-Apr-16 06:00N 22°33' E 120°20'0 0.0
2018-Apr-16 05:30N 22°33' E 120°20'0 0.0
2018-Apr-16 05:01N 22°33' E 120°20'0 0.0
2018-Apr-16 04:31N 22°33' E 120°20'0 0.0
2018-Apr-16 04:01N 22°33' E 120°20'0 0.0
2018-Apr-16 03:30N 22°33' E 120°20'1 2.9
2018-Apr-16 03:00N 22°33' E 120°18'4 7.0
2018-Apr-16 02:30N 22°32' E 120°15'2 3.8
2018-Apr-16 02:00N 22°30' E 120°14'0 0.3
2018-Apr-16 01:31N 22°30' E 120°14'1 2.4
2018-Apr-16 01:00N 22°29' E 120°14'611.8
2018-Apr-16 00:30N 22°23' E 120°15'611.9
2018-Apr-15 23:58N 22°17' E 120°16'  

Dump ship's entire track history